createdAt,value
2018-02-20T00:00:53.734Z,73.70
2018-02-20T00:03:22.121Z,73.96
2018-02-20T00:05:52.750Z,74.16
2018-02-20T00:08:21.061Z,74.44
2018-02-20T00:10:49.433Z,74.37
2018-02-20T00:13:17.783Z,74.45
2018-02-20T00:15:46.156Z,74.77
2018-02-20T00:18:15.251Z,74.89
2018-02-20T00:20:43.619Z,75.05
2018-02-20T00:23:11.945Z,75.30
2018-02-20T00:25:40.280Z,75.36
2018-02-20T00:28:08.646Z,75.34
2018-02-20T00:30:36.975Z,75.52
2018-02-20T00:33:05.340Z,75.78
2018-02-20T00:35:33.684Z,75.69
2018-02-20T00:38:02.048Z,75.74
2018-02-20T00:40:30.784Z,75.88
2018-02-20T00:42:59.112Z,75.96
2018-02-20T00:45:27.480Z,76.37
2018-02-20T00:47:56.256Z,76.68
2018-02-20T00:50:25.388Z,76.96
2018-02-20T00:52:53.728Z,77.15
2018-02-20T00:55:22.872Z,77.19
2018-02-20T00:57:51.244Z,77.37
2018-02-20T01:00:20.068Z,77.46
2018-02-20T01:02:48.418Z,77.59
2018-02-20T01:05:16.772Z,77.42
2018-02-20T01:07:45.118Z,77.40
2018-02-20T01:10:14.216Z,77.41
2018-02-20T01:12:43.339Z,77.62
2018-02-20T01:15:11.678Z,77.54
2018-02-20T01:17:40.047Z,77.31
2018-02-20T01:20:08.393Z,77.29
2018-02-20T01:22:36.728Z,77.33
2018-02-20T01:25:06.221Z,77.44
2018-02-20T01:27:35.325Z,77.50
2018-02-20T01:30:04.824Z,77.43
2018-02-20T01:32:33.936Z,77.45
2018-02-20T01:35:02.441Z,77.62
2018-02-20T01:37:30.780Z,77.53
2018-02-20T01:39:59.160Z,77.54
2018-02-20T01:42:28.263Z,77.68
2018-02-20T01:44:57.387Z,77.72
2018-02-20T01:47:25.767Z,77.78
2018-02-20T01:49:54.107Z,77.87
2018-02-20T01:52:23.244Z,77.88
2018-02-20T01:54:51.571Z,77.81
2018-02-20T01:57:19.918Z,77.76
2018-02-20T01:59:48.263Z,77.80
2018-02-20T02:02:16.611Z,77.88
2018-02-20T02:04:45.758Z,78.11
2018-02-20T02:07:14.167Z,78.17
2018-02-20T02:09:42.499Z,78.34
2018-02-20T02:12:10.875Z,78.36
2018-02-20T02:14:39.255Z,78.67
2018-02-20T02:17:07.591Z,78.87
2018-02-20T02:19:46.621Z,79.18
2018-02-20T02:22:15.715Z,79.15
2018-02-20T02:24:44.855Z,79.28
2018-02-20T02:27:13.199Z,79.21
2018-02-20T02:29:42.287Z,79.37
2018-02-20T02:32:11.419Z,79.68
2018-02-20T02:34:39.745Z,79.44
2018-02-20T02:37:08.114Z,79.73
2018-02-20T02:39:36.442Z,79.74
2018-02-20T02:42:04.823Z,79.69
2018-02-20T02:44:33.162Z,79.72
2018-02-20T02:47:01.504Z,79.73
2018-02-20T02:49:29.863Z,79.87
2018-02-20T02:51:58.587Z,79.79
2018-02-20T02:54:26.912Z,79.93
2018-02-20T02:56:55.298Z,79.94
2018-02-20T02:59:23.621Z,79.90
2018-02-20T03:01:51.957Z,79.95
2018-02-20T03:04:20.323Z,80.21
2018-02-20T03:06:48.680Z,80.20
2018-02-20T03:09:17.776Z,80.16
2018-02-20T03:11:46.930Z,80.27
2018-02-20T03:14:15.256Z,80.50
2018-02-20T03:16:44.373Z,80.66
2018-02-20T03:19:15.466Z,80.76
2018-02-20T03:21:43.832Z,80.84
2018-02-20T03:24:12.211Z,81.08
2018-02-20T03:26:40.556Z,81.35
2018-02-20T03:29:08.887Z,81.51
2018-02-20T03:31:37.295Z,81.63
2018-02-20T03:34:05.795Z,81.56
2018-02-20T03:36:34.130Z,81.66
2018-02-20T03:39:03.358Z,81.93
2018-02-20T03:41:31.686Z,82.22
2018-02-20T03:44:00.059Z,82.33
2018-02-20T03:46:28.442Z,82.39
2018-02-20T03:48:56.774Z,82.54
2018-02-20T03:51:25.146Z,82.55
2018-02-20T03:53:53.462Z,82.77
2018-02-20T03:56:21.839Z,82.90
2018-02-20T03:58:50.182Z,82.89
2018-02-20T04:01:18.570Z,82.73
2018-02-20T04:03:46.906Z,82.75
2018-02-20T04:06:16.027Z,82.97
2018-02-20T04:08:44.403Z,82.98
2018-02-20T04:11:12.761Z,83.10
2018-02-20T04:13:41.134Z,83.21
2018-02-20T04:16:10.238Z,83.25
2018-02-20T04:18:39.390Z,83.27
2018-02-20T04:21:07.724Z,83.27
2018-02-20T04:23:36.089Z,83.37
2018-02-20T04:26:05.202Z,83.65
2018-02-20T04:28:33.512Z,83.67
2018-02-20T04:31:01.871Z,83.79
2018-02-20T04:33:30.203Z,83.91
2018-02-20T04:35:59.373Z,83.89
2018-02-20T04:38:27.693Z,83.85
2018-02-20T04:40:56.877Z,83.74
2018-02-20T04:43:25.233Z,83.84
2018-02-20T04:45:53.556Z,84.09
2018-02-20T04:48:21.967Z,84.27
2018-02-20T04:50:50.304Z,84.23
2018-02-20T04:53:18.658Z,84.15
2018-02-20T04:55:47.003Z,84.21
2018-02-20T04:58:15.373Z,84.15
2018-02-20T05:00:43.730Z,84.24
2018-02-20T05:03:12.065Z,84.50
2018-02-20T05:05:40.412Z,84.51
2018-02-20T05:08:09.148Z,84.47
2018-02-20T05:10:38.282Z,84.55
2018-02-20T05:13:06.622Z,84.49
2018-02-20T05:15:35.765Z,84.50
2018-02-20T05:18:04.106Z,84.68
2018-02-20T05:20:32.820Z,84.93
2018-02-20T05:23:01.173Z,85.18
2018-02-20T05:25:29.506Z,85.15
2018-02-20T05:27:57.890Z,85.02
2018-02-20T05:30:26.218Z,85.27
2018-02-20T05:32:54.576Z,85.27
2018-02-20T05:35:23.683Z,85.71
2018-02-20T05:37:52.030Z,85.63
2018-02-20T05:40:20.402Z,85.48
2018-02-20T05:42:48.785Z,85.27
2018-02-20T05:45:17.897Z,85.34
2018-02-20T05:47:47.030Z,85.46
2018-02-20T05:50:16.134Z,85.66
2018-02-20T05:52:44.557Z,85.73
2018-02-20T05:55:13.674Z,85.60
2018-02-20T05:57:42.793Z,85.35
2018-02-20T06:00:11.161Z,85.24
2018-02-20T06:02:39.514Z,85.21
2018-02-20T06:05:08.654Z,85.16
2018-02-20T06:07:37.012Z,85.29
2018-02-20T06:10:05.784Z,85.17
2018-02-20T06:12:34.124Z,85.37
2018-02-20T06:15:02.568Z,85.00
2018-02-20T06:17:30.949Z,84.93
2018-02-20T06:19:59.323Z,84.81
2018-02-20T06:22:27.661Z,84.57
2018-02-20T06:24:56.802Z,84.52
2018-02-20T06:27:25.926Z,84.38
2018-02-20T06:29:54.650Z,84.30
2018-02-20T06:32:23.404Z,83.95
2018-02-20T06:34:53.081Z,83.56
2018-02-20T06:37:21.425Z,83.51
2018-02-20T06:39:49.801Z,83.31
2018-02-20T06:42:18.162Z,83.15
2018-02-20T06:44:47.293Z,82.96
2018-02-20T06:47:15.689Z,82.88
2018-02-20T06:49:44.026Z,82.65
2018-02-20T06:52:13.112Z,82.42
2018-02-20T06:54:42.285Z,82.14
2018-02-20T06:57:10.637Z,81.94
2018-02-20T06:59:39.013Z,81.80
2018-02-20T07:02:07.336Z,81.55
2018-02-20T07:04:36.455Z,81.46
2018-02-20T07:07:04.805Z,81.37
2018-02-20T07:09:33.958Z,81.24
2018-02-20T07:12:02.286Z,81.04
2018-02-20T07:14:31.381Z,81.12
2018-02-20T07:16:59.743Z,81.18
2018-02-20T07:19:28.064Z,81.04
2018-02-20T07:21:56.379Z,80.88
2018-02-20T07:24:24.745Z,80.84
2018-02-20T07:26:53.148Z,80.75
2018-02-20T07:29:21.554Z,80.58
2018-02-20T07:31:49.897Z,80.48
2018-02-20T07:34:18.277Z,80.33
2018-02-20T07:36:46.620Z,80.08
2018-02-20T07:39:14.970Z,79.79
2018-02-20T07:41:43.336Z,79.41
2018-02-20T07:44:12.433Z,79.44
2018-02-20T07:46:41.544Z,78.98
2018-02-20T07:49:09.920Z,78.77
2018-02-20T07:51:38.243Z,78.73
2018-02-20T07:54:06.618Z,78.54
2018-02-20T07:56:35.009Z,78.65
2018-02-20T07:59:03.348Z,78.50
2018-02-20T08:01:31.684Z,78.63
2018-02-20T08:04:01.545Z,78.64
2018-02-20T08:06:30.664Z,78.50
2018-02-20T08:08:58.979Z,78.27
2018-02-20T08:11:27.348Z,77.88
2018-02-20T08:13:56.507Z,77.50
2018-02-20T08:16:24.844Z,77.29
2018-02-20T08:18:53.199Z,77.12
2018-02-20T08:21:22.275Z,77.04
2018-02-20T08:23:50.652Z,76.82
2018-02-20T08:26:18.966Z,76.75
2018-02-20T08:28:47.350Z,76.49
2018-02-20T08:31:15.707Z,75.96
2018-02-20T08:33:44.048Z,76.06
2018-02-20T08:36:12.431Z,76.12
2018-02-20T08:38:40.763Z,76.20
2018-02-20T08:41:09.111Z,76.23
2018-02-20T08:43:37.422Z,75.73
2018-02-20T08:46:05.770Z,75.23
2018-02-20T08:48:34.101Z,74.84
2018-02-20T08:51:02.508Z,74.34
2018-02-20T08:53:30.848Z,73.93
2018-02-20T08:55:59.264Z,73.29
2018-02-20T08:58:27.607Z,72.79
2018-02-20T09:00:55.970Z,72.62
2018-02-20T09:03:24.300Z,72.87
2018-02-20T09:05:52.633Z,72.08
2018-02-20T09:08:21.009Z,72.14
2018-02-20T09:10:49.328Z,72.06
2018-02-20T09:13:17.632Z,71.03
2018-02-20T09:15:46.744Z,70.70
2018-02-20T09:18:15.104Z,70.90
2018-02-20T09:20:44.192Z,70.63
2018-02-20T09:23:12.550Z,69.45
2018-02-20T09:25:40.865Z,69.10
2018-02-20T09:28:09.990Z,68.41
2018-02-20T09:30:38.346Z,68.01
2018-02-20T09:33:06.696Z,67.82
2018-02-20T09:35:35.071Z,67.82
2018-02-20T09:38:04.187Z,68.59
2018-02-20T09:40:32.518Z,69.38
2018-02-20T09:43:00.904Z,68.63
2018-02-20T09:45:29.219Z,67.92
2018-02-20T09:47:57.522Z,67.95
2018-02-20T09:50:26.649Z,67.73
2018-02-20T09:52:55.004Z,68.40
2018-02-20T09:55:23.348Z,68.69
2018-02-20T09:57:52.465Z,68.61
2018-02-20T10:00:20.889Z,68.86
2018-02-20T10:02:49.217Z,68.97
2018-02-20T10:05:18.317Z,68.44
2018-02-20T10:07:46.669Z,68.24
2018-02-20T10:10:15.801Z,68.23
2018-02-20T10:12:44.148Z,67.25
2018-02-20T10:15:14.007Z,67.55
2018-02-20T10:17:42.333Z,66.63
2018-02-20T10:20:11.415Z,66.09
2018-02-20T10:22:40.551Z,65.22
2018-02-20T10:25:08.879Z,66.09
2018-02-20T10:27:37.209Z,66.59
2018-02-20T10:30:05.557Z,66.27
2018-02-20T10:32:34.823Z,65.76
2018-02-20T10:35:03.179Z,65.33
2018-02-20T10:37:31.530Z,65.52
2018-02-20T10:39:59.851Z,65.75
2018-02-20T10:42:28.200Z,65.06
2018-02-20T10:44:56.524Z,65.45
2018-02-20T10:47:24.877Z,65.42
2018-02-20T10:49:53.200Z,65.50
2018-02-20T10:52:22.336Z,65.45
2018-02-20T10:54:50.682Z,65.14
2018-02-20T10:57:19.017Z,64.99
2018-02-20T10:59:47.361Z,65.08
2018-02-20T11:02:15.685Z,64.23
2018-02-20T11:04:44.058Z,62.92
2018-02-20T11:07:12.372Z,62.61
2018-02-20T11:09:40.742Z,62.27
2018-02-20T11:12:09.059Z,62.42
2018-02-20T11:14:37.371Z,62.63
2018-02-20T11:17:05.717Z,62.51
2018-02-20T11:19:34.097Z,61.81
2018-02-20T11:22:02.430Z,61.52
2018-02-20T11:24:30.747Z,61.31
2018-02-20T11:26:59.114Z,60.56
2018-02-20T11:29:27.447Z,60.75
2018-02-20T11:31:56.531Z,60.45
2018-02-20T11:34:24.890Z,60.27
2018-02-20T11:36:53.218Z,60.66
2018-02-20T11:39:21.553Z,60.35
2018-02-20T11:41:49.914Z,59.38
2018-02-20T11:44:18.247Z,58.87
2018-02-20T11:46:46.611Z,58.41
2018-02-20T11:49:15.702Z,58.55
2018-02-20T11:51:44.067Z,59.31
2018-02-20T11:54:13.195Z,59.08
2018-02-20T11:56:41.564Z,59.00
2018-02-20T11:59:09.944Z,58.80
2018-02-20T12:01:38.273Z,58.54
2018-02-20T12:04:06.646Z,59.29
2018-02-20T12:06:34.995Z,59.56
2018-02-20T12:09:03.360Z,59.06
2018-02-20T12:11:31.677Z,58.89
2018-02-20T12:14:00.023Z,58.77
2018-02-20T12:16:28.399Z,59.07
2018-02-20T12:18:56.716Z,58.95
2018-02-20T12:21:25.071Z,58.30
2018-02-20T12:23:53.406Z,58.29
2018-02-20T12:26:22.540Z,58.29
2018-02-20T12:28:50.874Z,58.03
2018-02-20T12:31:19.994Z,57.56
2018-02-20T12:33:48.315Z,57.49
2018-02-20T12:36:16.652Z,57.46
2018-02-20T12:38:45.012Z,56.87
2018-02-20T12:41:14.108Z,56.84
2018-02-20T12:43:43.243Z,56.44
2018-02-20T12:46:11.592Z,56.44
2018-02-20T12:48:39.913Z,56.33
2018-02-20T12:51:08.259Z,56.39
2018-02-20T12:53:36.655Z,55.80
2018-02-20T12:56:04.947Z,55.55
2018-02-20T12:58:33.278Z,55.44
2018-02-20T13:01:01.644Z,55.69
2018-02-20T13:03:30.777Z,55.35
2018-02-20T13:05:59.109Z,55.43
2018-02-20T13:08:28.202Z,55.15
2018-02-20T13:10:57.342Z,54.55
2018-02-20T13:13:25.674Z,54.19
2018-02-20T13:15:54.776Z,54.17
2018-02-20T13:18:23.900Z,54.04
2018-02-20T13:20:52.262Z,53.91
2018-02-20T13:23:20.638Z,53.39
2018-02-20T13:25:49.740Z,52.95
2018-02-20T13:28:18.097Z,52.89
2018-02-20T13:30:47.198Z,52.66
2018-02-20T13:33:16.320Z,51.89
2018-02-20T13:35:44.654Z,51.93
2018-02-20T13:38:13.014Z,50.75
2018-02-20T13:40:41.322Z,50.59
2018-02-20T13:43:10.434Z,50.83
2018-02-20T13:45:39.180Z,49.88
2018-02-20T13:48:07.520Z,49.43
2018-02-20T13:50:35.874Z,48.90
2018-02-20T13:53:04.276Z,49.24
2018-02-20T13:55:32.812Z,49.16
2018-02-20T13:58:01.948Z,48.27
2018-02-20T14:00:30.309Z,48.52
2018-02-20T14:02:59.074Z,48.53
2018-02-20T14:05:28.163Z,47.97
2018-02-20T14:07:56.522Z,48.19
2018-02-20T14:10:24.838Z,47.88
2018-02-20T14:12:53.162Z,47.87
2018-02-20T14:15:21.549Z,47.79
2018-02-20T14:17:49.920Z,47.87
2018-02-20T14:20:18.263Z,47.81
2018-02-20T14:22:46.650Z,48.14
2018-02-20T14:25:15.060Z,48.36
2018-02-20T14:27:43.429Z,48.26
2018-02-20T14:30:11.801Z,48.34
2018-02-20T14:32:40.238Z,47.80
2018-02-20T14:35:09.379Z,48.10
2018-02-20T14:37:37.729Z,47.53
2018-02-20T14:40:06.090Z,47.49
2018-02-20T14:42:35.237Z,47.44
2018-02-20T14:45:03.578Z,47.50
2018-02-20T14:47:43.107Z,47.41
2018-02-20T14:50:12.220Z,46.72
2018-02-20T14:52:40.600Z,46.88
2018-02-20T14:55:09.276Z,46.63
2018-02-20T14:57:37.637Z,46.66
2018-02-20T15:00:06.835Z,46.91
2018-02-20T15:02:35.954Z,46.50
2018-02-20T15:05:04.315Z,46.49
2018-02-20T15:07:33.420Z,46.93
2018-02-20T15:10:02.144Z,47.08
2018-02-20T15:12:30.483Z,47.18
2018-02-20T15:14:58.822Z,47.30
2018-02-20T15:17:27.167Z,47.45
2018-02-20T15:19:56.311Z,47.92
2018-02-20T15:22:25.419Z,48.34
2018-02-20T15:24:54.554Z,48.38
2018-02-20T15:27:23.029Z,48.52
2018-02-20T15:29:52.341Z,48.82
2018-02-20T15:32:20.696Z,49.25
2018-02-20T15:34:49.077Z,49.56
2018-02-20T15:37:18.078Z,49.79
2018-02-20T15:39:46.443Z,50.08
2018-02-20T15:42:24.570Z,50.51
2018-02-20T15:44:52.951Z,50.94
2018-02-20T15:47:21.338Z,51.21
2018-02-20T15:49:49.673Z,51.43
2018-02-20T15:52:18.101Z,51.58
2018-02-20T15:54:46.524Z,52.00
2018-02-20T15:57:14.888Z,52.38
2018-02-20T15:59:43.282Z,52.66
2018-02-20T16:02:11.608Z,53.17
2018-02-20T16:04:39.945Z,53.55
2018-02-20T16:07:09.093Z,53.86
2018-02-20T16:09:39.187Z,54.31
2018-02-20T16:12:09.238Z,54.48
2018-02-20T16:14:37.578Z,54.90
2018-02-20T16:17:06.981Z,55.07
2018-02-20T16:19:35.341Z,55.47
2018-02-20T16:22:04.857Z,55.73
2018-02-20T16:24:33.821Z,55.81
2018-02-20T16:27:02.901Z,55.98
2018-02-20T16:29:32.071Z,56.39
2018-02-20T16:32:00.433Z,56.63
2018-02-20T16:34:28.752Z,56.64
2018-02-20T16:36:58.270Z,57.12
2018-02-20T16:39:26.625Z,57.44
2018-02-20T16:41:55.765Z,57.75
2018-02-20T16:44:24.106Z,57.91
2018-02-20T16:46:53.248Z,58.55
2018-02-20T16:49:22.382Z,58.37
2018-02-20T16:51:51.104Z,58.81
2018-02-20T16:54:19.496Z,58.54
2018-02-20T16:56:49.336Z,58.59
2018-02-20T16:59:18.094Z,58.62
2018-02-20T17:01:46.830Z,58.78
2018-02-20T17:04:15.951Z,58.77
2018-02-20T17:06:45.092Z,58.98
2018-02-20T17:09:14.511Z,59.49
2018-02-20T17:11:42.949Z,59.68
2018-02-20T17:14:11.768Z,59.76
2018-02-20T17:16:40.897Z,60.07
2018-02-20T17:19:09.297Z,60.62
2018-02-20T17:21:38.534Z,60.73
2018-02-20T17:24:06.848Z,60.82
2018-02-20T17:26:35.267Z,61.33
2018-02-20T17:29:03.608Z,61.70
2018-02-20T17:31:33.072Z,61.59
2018-02-20T17:34:01.484Z,61.83
2018-02-20T17:36:29.956Z,62.30
2018-02-20T17:38:58.415Z,63.06
2018-02-20T17:41:27.208Z,63.44
2018-02-20T17:43:55.577Z,63.45
2018-02-20T17:46:23.996Z,63.30
2018-02-20T17:48:53.133Z,63.08
2018-02-20T17:51:22.448Z,63.39
2018-02-20T17:53:51.394Z,63.64
2018-02-20T17:56:20.651Z,63.58
2018-02-20T17:58:49.028Z,64.20
2018-02-20T18:01:17.390Z,64.12
2018-02-20T18:03:45.710Z,64.34
2018-02-20T18:06:14.051Z,64.70
2018-02-20T18:08:43.198Z,64.50
2018-02-20T18:11:13.394Z,64.77
2018-02-20T18:13:42.944Z,64.80
2018-02-20T18:16:12.054Z,64.66
2018-02-20T18:18:40.449Z,64.44
2018-02-20T18:21:08.824Z,64.12
2018-02-20T18:23:37.236Z,63.86
2018-02-20T18:26:05.679Z,63.84
2018-02-20T18:28:34.053Z,63.66
2018-02-20T18:31:02.459Z,63.85
2018-02-20T18:33:30.810Z,63.47
2018-02-20T18:35:59.919Z,63.26
2018-02-20T18:38:29.038Z,63.35
2018-02-20T18:40:59.870Z,63.64
2018-02-20T18:43:28.853Z,63.83
2018-02-20T18:45:57.207Z,64.06
2018-02-20T18:48:25.563Z,64.04
2018-02-20T18:50:58.428Z,64.43
2018-02-20T18:53:27.501Z,64.43
2018-02-20T18:55:56.641Z,64.67
2018-02-20T18:58:25.066Z,64.72
2018-02-20T19:00:54.203Z,64.98
2018-02-20T19:03:23.473Z,64.52
2018-02-20T19:05:52.293Z,64.05
2018-02-20T19:08:22.433Z,63.85
2018-02-20T19:10:51.200Z,63.96
2018-02-20T19:13:21.220Z,63.76
2018-02-20T19:15:50.449Z,63.98
2018-02-20T19:18:18.772Z,63.44
2018-02-20T19:20:47.152Z,63.36
2018-02-20T19:23:15.786Z,63.58
2018-02-20T19:25:44.915Z,64.25
2018-02-20T19:28:13.673Z,64.23
2018-02-20T19:30:44.803Z,64.12
2018-02-20T19:33:14.109Z,63.79
2018-02-20T19:35:43.007Z,63.86
2018-02-20T19:38:11.383Z,64.36
2018-02-20T19:40:40.639Z,65.02
2018-02-20T19:43:08.977Z,64.82
2018-02-20T19:45:38.048Z,64.65
2018-02-20T19:48:07.403Z,65.11
2018-02-20T19:50:37.023Z,64.84
2018-02-20T19:53:06.130Z,64.81
2018-02-20T19:55:34.505Z,64.85
2018-02-20T19:58:03.295Z,65.21
2018-02-20T20:00:34.418Z,65.61
2018-02-20T20:03:02.847Z,65.87
2018-02-20T20:05:31.276Z,65.81
2018-02-20T20:08:00.429Z,66.03
2018-02-20T20:10:29.687Z,66.38
2018-02-20T20:12:58.113Z,66.02
2018-02-20T20:15:27.208Z,66.44
2018-02-20T20:17:56.479Z,66.52
2018-02-20T20:20:36.904Z,66.43
2018-02-20T20:22:55.945Z,66.66
2018-02-20T20:25:24.290Z,67.14
2018-02-20T20:27:53.813Z,67.12
2018-02-20T20:30:22.165Z,67.46
2018-02-20T20:32:51.312Z,67.60
2018-02-20T20:35:20.287Z,67.89
2018-02-20T20:37:48.651Z,67.82
2018-02-20T20:40:19.519Z,68.18
2018-02-20T20:42:48.692Z,68.36
2018-02-20T20:45:18.036Z,68.51
2018-02-20T20:47:47.092Z,68.97
2018-02-20T20:50:16.177Z,69.15
2018-02-20T20:52:44.612Z,69.21
2018-02-20T20:55:12.985Z,69.30
2018-02-20T20:57:42.116Z,69.19
2018-02-20T21:00:11.254Z,69.30
2018-02-20T21:02:40.361Z,69.21
2018-02-20T21:05:10.207Z,69.18
2018-02-20T21:07:38.817Z,69.43
2018-02-20T21:10:07.296Z,69.74
2018-02-20T21:12:35.699Z,70.24
2018-02-20T21:15:04.059Z,70.61
2018-02-20T21:17:32.454Z,71.20
2018-02-20T21:20:01.717Z,71.44
2018-02-20T21:22:31.014Z,71.39
2018-02-20T21:24:59.458Z,71.74
2018-02-20T21:27:30.057Z,71.55
2018-02-20T21:29:59.266Z,71.49
2018-02-20T21:32:27.607Z,71.37
2018-02-20T21:34:56.014Z,71.58
2018-02-20T21:37:27.030Z,71.46
2018-02-20T21:39:57.035Z,71.28
2018-02-20T21:42:25.540Z,71.22
2018-02-20T21:44:53.909Z,71.18
2018-02-20T21:47:23.370Z,71.12
2018-02-20T21:49:51.768Z,71.05
2018-02-20T21:52:20.265Z,71.30
2018-02-20T21:54:51.400Z,71.66
2018-02-20T21:57:19.724Z,71.90
2018-02-20T21:59:49.689Z,71.86
2018-02-20T22:02:18.021Z,72.08
2018-02-20T22:04:46.355Z,72.41
2018-02-20T22:07:14.725Z,71.98
2018-02-20T22:09:43.070Z,72.12
2018-02-20T22:12:12.215Z,72.17
2018-02-20T22:14:40.541Z,72.05
2018-02-20T22:17:09.672Z,72.04
2018-02-20T22:19:37.993Z,72.12
2018-02-20T22:22:06.360Z,72.29
2018-02-20T22:24:34.926Z,72.25
2018-02-20T22:27:03.663Z,72.63
2018-02-20T22:29:32.789Z,72.63
2018-02-20T22:32:01.142Z,72.58
2018-02-20T22:34:29.478Z,72.91
2018-02-20T22:37:01.530Z,73.07
2018-02-20T22:39:30.277Z,73.00
2018-02-20T22:41:58.661Z,73.29
2018-02-20T22:44:26.977Z,73.74
2018-02-20T22:46:55.344Z,73.88
2018-02-20T22:49:23.723Z,73.84
2018-02-20T22:51:52.085Z,74.21
2018-02-20T22:54:20.457Z,74.54
2018-02-20T22:56:48.819Z,74.31
2018-02-20T22:59:17.202Z,74.77
2018-02-20T23:01:45.536Z,75.15
2018-02-20T23:04:14.375Z,75.07
2018-02-20T23:06:42.743Z,75.20
2018-02-20T23:09:11.069Z,75.29
2018-02-20T23:11:47.843Z,75.22
2018-02-20T23:14:16.189Z,75.42
2018-02-20T23:16:44.503Z,75.80
2018-02-20T23:19:12.870Z,76.21
2018-02-20T23:21:41.179Z,76.72
2018-02-20T23:24:09.537Z,76.47
2018-02-20T23:26:37.877Z,76.59
2018-02-20T23:29:06.239Z,76.50
2018-02-20T23:31:34.633Z,76.67
2018-02-20T23:34:02.949Z,76.72
2018-02-20T23:36:31.324Z,76.50
2018-02-20T23:38:59.669Z,76.46
2018-02-20T23:41:28.025Z,76.97
2018-02-20T23:43:56.432Z,76.91
2018-02-20T23:46:24.784Z,76.72
2018-02-20T23:48:53.129Z,76.68
2018-02-20T23:51:26.921Z,76.55
2018-02-20T23:53:55.273Z,76.73
2018-02-20T23:56:23.661Z,76.91
2018-02-20T23:58:52.037Z,77.01
